sensor_id;sensor_type;location;lat;lon;timestamp;pressure;altitude;pressure_sealevel;temperature
68952;BMP180;56000;51.146;17.112;2022-09-27T00:00:17;98824.00;;;10.30
68952;BMP180;56000;51.146;17.112;2022-09-27T00:03:10;98822.80;;;10.30
68952;BMP180;56000;51.146;17.112;2022-09-27T00:05:43;98822.40;;;10.30
68952;BMP180;56000;51.146;17.112;2022-09-27T00:08:16;98818.00;;;10.30
68952;BMP180;56000;51.146;17.112;2022-09-27T00:10:59;98820.00;;;10.40
68952;BMP180;56000;51.146;17.112;2022-09-27T00:13:32;98813.80;;;10.40
68952;BMP180;56000;51.146;17.112;2022-09-27T00:16:05;98807.00;;;10.40
68952;BMP180;56000;51.146;17.112;2022-09-27T00:18:38;98803.80;;;10.40
68952;BMP180;56000;51.146;17.112;2022-09-27T00:21:13;98805.00;;;10.40
68952;BMP180;56000;51.146;17.112;2022-09-27T00:23:46;98804.60;;;10.40
68952;BMP180;56000;51.146;17.112;2022-09-27T00:26:19;98804.40;;;10.40
68952;BMP180;56000;51.146;17.112;2022-09-27T00:28:52;98804.00;;;10.40
68952;BMP180;56000;51.146;17.112;2022-09-27T00:31:27;98790.20;;;10.40
68952;BMP180;56000;51.146;17.112;2022-09-27T00:34:03;98786.00;;;10.40
68952;BMP180;56000;51.146;17.112;2022-09-27T00:36:36;98779.00;;;10.40
68952;BMP180;56000;51.146;17.112;2022-09-27T00:39:09;98777.40;;;10.40
68952;BMP180;56000;51.146;17.112;2022-09-27T00:41:42;98770.20;;;10.40
68952;BMP180;56000;51.146;17.112;2022-09-27T00:44:53;98772.20;;;10.40
68952;BMP180;56000;51.146;17.112;2022-09-27T00:47:30;98765.20;;;10.40
68952;BMP180;56000;51.146;17.112;2022-09-27T00:50:12;98756.60;;;10.30
68952;BMP180;56000;51.146;17.112;2022-09-27T00:52:53;98760.00;;;10.30
68952;BMP180;56000;51.146;17.112;2022-09-27T00:55:33;98755.40;;;10.20
68952;BMP180;56000;51.146;17.112;2022-09-27T00:58:07;98767.20;;;10.20
68952;BMP180;56000;51.146;17.112;2022-09-27T01:00:45;98774.80;;;10.10
68952;BMP180;56000;51.146;17.112;2022-09-27T01:03:29;98777.00;;;10.10
68952;BMP180;56000;51.146;17.112;2022-09-27T01:06:04;98770.20;;;10.00
68952;BMP180;56000;51.146;17.112;2022-09-27T01:08:38;98767.60;;;10.00
68952;BMP180;56000;51.146;17.112;2022-09-27T01:11:23;98756.00;;;9.90
68952;BMP180;56000;51.146;17.112;2022-09-27T01:14:15;98750.80;;;9.90
68952;BMP180;56000;51.146;17.112;2022-09-27T01:16:59;98745.60;;;9.80
68952;BMP180;56000;51.146;17.112;2022-09-27T01:19:50;98736.20;;;9.80
68952;BMP180;56000;51.146;17.112;2022-09-27T01:22:31;98726.00;;;9.78
68952;BMP180;56000;51.146;17.112;2022-09-27T01:25:34;98728.80;;;9.72
68952;BMP180;56000;51.146;17.112;2022-09-27T01:28:23;98727.20;;;9.70
68952;BMP180;56000;51.146;17.112;2022-09-27T01:31:02;98720.80;;;9.70
68952;BMP180;56000;51.146;17.112;2022-09-27T01:33:47;98719.40;;;9.66
68952;BMP180;56000;51.146;17.112;2022-09-27T01:36:33;98713.00;;;9.60
68952;BMP180;56000;51.146;17.112;2022-09-27T01:39:24;98705.60;;;9.60
68952;BMP180;56000;51.146;17.112;2022-09-27T01:42:27;98700.40;;;9.64
68952;BMP180;56000;51.146;17.112;2022-09-27T01:45:06;98703.40;;;9.70
68952;BMP180;56000;51.146;17.112;2022-09-27T01:47:54;98693.40;;;9.70
68952;BMP180;56000;51.146;17.112;2022-09-27T01:50:53;98688.20;;;9.70
68952;BMP180;56000;51.146;17.112;2022-09-27T01:53:32;98687.00;;;9.70
68952;BMP180;56000;51.146;17.112;2022-09-27T01:56:36;98684.00;;;9.70
68952;BMP180;56000;51.146;17.112;2022-09-27T01:59:23;98673.80;;;9.70
68952;BMP180;56000;51.146;17.112;2022-09-27T02:02:16;98672.00;;;9.70
68952;BMP180;56000;51.146;17.112;2022-09-27T02:05:11;98671.80;;;9.70
68952;BMP180;56000;51.146;17.112;2022-09-27T02:07:52;98668.40;;;9.70
68952;BMP180;56000;51.146;17.112;2022-09-27T02:10:33;98670.80;;;9.70
68952;BMP180;56000;51.146;17.112;2022-09-27T02:13:18;98665.20;;;9.72
68952;BMP180;56000;51.146;17.112;2022-09-27T02:16:00;98658.20;;;9.70
68952;BMP180;56000;51.146;17.112;2022-09-27T02:18:50;98651.00;;;9.70
68952;BMP180;56000;51.146;17.112;2022-09-27T02:21:39;98645.60;;;9.60
68952;BMP180;56000;51.146;17.112;2022-09-27T02:24:20;98637.00;;;9.60
68952;BMP180;56000;51.146;17.112;2022-09-27T02:27:02;98636.40;;;9.60
68952;BMP180;56000;51.146;17.112;2022-09-27T02:29:42;98633.80;;;9.60
68952;BMP180;56000;51.146;17.112;2022-09-27T02:32:17;98639.40;;;9.60
68952;BMP180;56000;51.146;17.112;2022-09-27T02:34:51;98630.60;;;9.60
68952;BMP180;56000;51.146;17.112;2022-09-27T02:37:25;98620.60;;;9.60
68952;BMP180;56000;51.146;17.112;2022-09-27T02:39:58;98618.00;;;9.60
68952;BMP180;56000;51.146;17.112;2022-09-27T02:42:32;98617.20;;;9.60
68952;BMP180;56000;51.146;17.112;2022-09-27T02:45:07;98611.40;;;9.60
68952;BMP180;56000;51.146;17.112;2022-09-27T02:48:03;98609.80;;;9.60
68952;BMP180;56000;51.146;17.112;2022-09-27T02:50:48;98608.00;;;9.62
68952;BMP180;56000;51.146;17.112;2022-09-27T02:53:43;98610.00;;;9.62
68952;BMP180;56000;51.146;17.112;2022-09-27T02:56:49;98608.20;;;9.62
68952;BMP180;56000;51.146;17.112;2022-09-27T03:00:03;98604.60;;;9.60
68952;BMP180;56000;51.146;17.112;2022-09-27T03:02:54;98603.80;;;9.60
68952;BMP180;56000;51.146;17.112;2022-09-27T03:05:35;98608.60;;;9.60
68952;BMP180;56000;51.146;17.112;2022-09-27T03:08:10;98599.20;;;9.60
68952;BMP180;56000;51.146;17.112;2022-09-27T03:10:44;98600.60;;;9.60
68952;BMP180;56000;51.146;17.112;2022-09-27T03:13:17;98605.40;;;9.60
68952;BMP180;56000;51.146;17.112;2022-09-27T03:15:49;98605.40;;;9.60
68952;BMP180;56000;51.146;17.112;2022-09-27T03:18:22;98607.40;;;9.60
68952;BMP180;56000;51.146;17.112;2022-09-27T03:21:14;98603.40;;;9.60
68952;BMP180;56000;51.146;17.112;2022-09-27T03:23:46;98596.80;;;9.60
68952;BMP180;56000;51.146;17.112;2022-09-27T03:26:20;98592.40;;;9.58
68952;BMP180;56000;51.146;17.112;2022-09-27T03:28:53;98591.60;;;9.50
68952;BMP180;56000;51.146;17.112;2022-09-27T03:31:25;98586.40;;;9.50
68952;BMP180;56000;51.146;17.112;2022-09-27T03:34:17;98584.60;;;9.50
68952;BMP180;56000;51.146;17.112;2022-09-27T03:36:50;98576.80;;;9.50
68952;BMP180;56000;51.146;17.112;2022-09-27T03:39:23;98579.40;;;9.40
68952;BMP180;56000;51.146;17.112;2022-09-27T03:41:55;98568.40;;;9.40
68952;BMP180;56000;51.146;17.112;2022-09-27T03:44:28;98572.80;;;9.40
68952;BMP180;56000;51.146;17.112;2022-09-27T03:47:01;98570.00;;;9.40
68952;BMP180;56000;51.146;17.112;2022-09-27T03:49:33;98562.80;;;9.40
68952;BMP180;56000;51.146;17.112;2022-09-27T03:52:06;98560.60;;;9.30
68952;BMP180;56000;51.146;17.112;2022-09-27T03:54:39;98558.40;;;9.30
68952;BMP180;56000;51.146;17.112;2022-09-27T03:57:13;98557.60;;;9.30
68952;BMP180;56000;51.146;17.112;2022-09-27T03:59:46;98554.00;;;9.30
68952;BMP180;56000;51.146;17.112;2022-09-27T04:02:39;98548.00;;;9.20
68952;BMP180;56000;51.146;17.112;2022-09-27T04:05:39;98550.60;;;9.20
68952;BMP180;56000;51.146;17.112;2022-09-27T04:08:17;98555.80;;;9.20
68952;BMP180;56000;51.146;17.112;2022-09-27T04:10:51;98549.40;;;9.20
68952;BMP180;56000;51.146;17.112;2022-09-27T04:13:24;98546.60;;;9.20
68952;BMP180;56000;51.146;17.112;2022-09-27T04:15:58;98551.20;;;9.20
68952;BMP180;56000;51.146;17.112;2022-09-27T04:18:49;98546.40;;;9.20
68952;BMP180;56000;51.146;17.112;2022-09-27T04:21:48;98541.20;;;9.22
68952;BMP180;56000;51.146;17.112;2022-09-27T04:24:21;98532.60;;;9.20
68952;BMP180;56000;51.146;17.112;2022-09-27T04:27:10;98539.00;;;9.24
68952;BMP180;56000;51.146;17.112;2022-09-27T04:29:43;98537.60;;;9.22
68952;BMP180;56000;51.146;17.112;2022-09-27T04:32:41;98535.00;;;9.20
68952;BMP180;56000;51.146;17.112;2022-09-27T04:35:32;98540.60;;;9.22
68952;BMP180;56000;51.146;17.112;2022-09-27T04:38:21;98540.20;;;9.24
68952;BMP180;56000;51.146;17.112;2022-09-27T04:40:54;98537.60;;;9.26
68952;BMP180;56000;51.146;17.112;2022-09-27T04:43:28;98543.60;;;9.26
68952;BMP180;56000;51.146;17.112;2022-09-27T04:46:01;98543.80;;;9.28
68952;BMP180;56000;51.146;17.112;2022-09-27T04:48:33;98543.40;;;9.30
68952;BMP180;56000;51.146;17.112;2022-09-27T04:51:08;98538.20;;;9.30
68952;BMP180;56000;51.146;17.112;2022-09-27T04:53:41;98540.20;;;9.30
68952;BMP180;56000;51.146;17.112;2022-09-27T04:56:15;98537.00;;;9.30
68952;BMP180;56000;51.146;17.112;2022-09-27T04:58:48;98525.60;;;9.30
68952;BMP180;56000;51.146;17.112;2022-09-27T05:01:21;98525.60;;;9.40
68952;BMP180;56000;51.146;17.112;2022-09-27T05:04:03;98523.20;;;9.40
68952;BMP180;56000;51.146;17.112;2022-09-27T05:06:37;98523.20;;;9.40
68952;BMP180;56000;51.146;17.112;2022-09-27T05:09:19;98519.40;;;9.48
68952;BMP180;56000;51.146;17.112;2022-09-27T05:11:55;98531.00;;;9.50
68952;BMP180;56000;51.146;17.112;2022-09-27T05:14:28;98525.40;;;9.50
68952;BMP180;56000;51.146;17.112;2022-09-27T05:17:14;98524.20;;;9.50
68952;BMP180;56000;51.146;17.112;2022-09-27T05:20:10;98527.20;;;9.50
68952;BMP180;56000;51.146;17.112;2022-09-27T05:22:54;98523.20;;;9.50
68952;BMP180;56000;51.146;17.112;2022-09-27T05:25:28;98525.20;;;9.50
68952;BMP180;56000;51.146;17.112;2022-09-27T05:28:02;98519.40;;;9.60
68952;BMP180;56000;51.146;17.112;2022-09-27T05:30:35;98524.60;;;9.58
68952;BMP180;56000;51.146;17.112;2022-09-27T05:33:12;98514.00;;;9.60
68952;BMP180;56000;51.146;17.112;2022-09-27T05:36:00;98516.20;;;9.60
68952;BMP180;56000;51.146;17.112;2022-09-27T05:38:35;98514.80;;;9.60
68952;BMP180;56000;51.146;17.112;2022-09-27T05:41:08;98517.40;;;9.60
68952;BMP180;56000;51.146;17.112;2022-09-27T05:43:43;98521.80;;;9.60
68952;BMP180;56000;51.146;17.112;2022-09-27T05:46:17;98515.80;;;9.64
68952;BMP180;56000;51.146;17.112;2022-09-27T05:48:50;98512.80;;;9.70
68952;BMP180;56000;51.146;17.112;2022-09-27T05:51:23;98517.20;;;9.70
68952;BMP180;56000;51.146;17.112;2022-09-27T05:53:56;98514.00;;;9.70
68952;BMP180;56000;51.146;17.112;2022-09-27T05:56:30;98515.40;;;9.80
68952;BMP180;56000;51.146;17.112;2022-09-27T05:59:09;98508.80;;;9.80
68952;BMP180;56000;51.146;17.112;2022-09-27T06:02:01;98502.00;;;9.90
68952;BMP180;56000;51.146;17.112;2022-09-27T06:04:54;98493.00;;;9.90
68952;BMP180;56000;51.146;17.112;2022-09-27T06:07:46;98484.80;;;9.90
68952;BMP180;56000;51.146;17.112;2022-09-27T06:10:27;98488.00;;;10.00
68952;BMP180;56000;51.146;17.112;2022-09-27T06:13:03;98484.20;;;10.00
68952;BMP180;56000;51.146;17.112;2022-09-27T06:15:40;98489.20;;;10.10
68952;BMP180;56000;51.146;17.112;2022-09-27T06:18:14;98479.00;;;10.10
68952;BMP180;56000;51.146;17.112;2022-09-27T06:20:51;98469.80;;;10.20
68952;BMP180;56000;51.146;17.112;2022-09-27T06:23:24;98462.60;;;10.30
68952;BMP180;56000;51.146;17.112;2022-09-27T06:26:01;98465.40;;;10.40
68952;BMP180;56000;51.146;17.112;2022-09-27T06:28:54;98468.00;;;10.50
68952;BMP180;56000;51.146;17.112;2022-09-27T06:31:28;98476.20;;;10.60
68952;BMP180;56000;51.146;17.112;2022-09-27T06:34:27;98484.80;;;10.70
68952;BMP180;56000;51.146;17.112;2022-09-27T06:36:59;98494.20;;;10.70
68952;BMP180;56000;51.146;17.112;2022-09-27T06:39:32;98502.60;;;10.80
68952;BMP180;56000;51.146;17.112;2022-09-27T06:42:27;98504.60;;;10.80
68952;BMP180;56000;51.146;17.112;2022-09-27T06:45:18;98497.80;;;10.84
68952;BMP180;56000;51.146;17.112;2022-09-27T06:48:12;98492.60;;;10.90
68952;BMP180;56000;51.146;17.112;2022-09-27T06:51:09;98492.20;;;10.90
68952;BMP180;56000;51.146;17.112;2022-09-27T06:53:42;98495.60;;;10.90
68952;BMP180;56000;51.146;17.112;2022-09-27T06:56:15;98503.40;;;11.00
68952;BMP180;56000;51.146;17.112;2022-09-27T06:58:54;98492.40;;;11.00
68952;BMP180;56000;51.146;17.112;2022-09-27T07:01:47;98488.60;;;11.10
68952;BMP180;56000;51.146;17.112;2022-09-27T07:04:22;98491.60;;;11.10
68952;BMP180;56000;51.146;17.112;2022-09-27T07:07:07;98485.20;;;11.20
68952;BMP180;56000;51.146;17.112;2022-09-27T07:09:44;98485.80;;;11.30
68952;BMP180;56000;51.146;17.112;2022-09-27T07:12:17;98481.20;;;11.40
68952;BMP180;56000;51.146;17.112;2022-09-27T07:14:56;98483.40;;;11.50
68952;BMP180;56000;51.146;17.112;2022-09-27T07:17:28;98485.40;;;11.60
68952;BMP180;56000;51.146;17.112;2022-09-27T07:20:02;98481.80;;;11.64
68952;BMP180;56000;51.146;17.112;2022-09-27T07:22:40;98484.80;;;11.70
68952;BMP180;56000;51.146;17.112;2022-09-27T07:25:15;98486.80;;;11.70
68952;BMP180;56000;51.146;17.112;2022-09-27T07:27:48;98485.20;;;11.80
68952;BMP180;56000;51.146;17.112;2022-09-27T07:30:23;98480.00;;;11.80
68952;BMP180;56000;51.146;17.112;2022-09-27T07:33:01;98487.00;;;11.80
68952;BMP180;56000;51.146;17.112;2022-09-27T07:35:34;98483.80;;;11.80
68952;BMP180;56000;51.146;17.112;2022-09-27T07:38:12;98484.00;;;11.80
68952;BMP180;56000;51.146;17.112;2022-09-27T07:40:44;98485.60;;;11.80
68952;BMP180;56000;51.146;17.112;2022-09-27T07:43:18;98476.00;;;11.80
68952;BMP180;56000;51.146;17.112;2022-09-27T07:45:51;98475.00;;;11.80
68952;BMP180;56000;51.146;17.112;2022-09-27T07:48:36;98480.20;;;11.80
68952;BMP180;56000;51.146;17.112;2022-09-27T07:51:28;98482.80;;;11.80
68952;BMP180;56000;51.146;17.112;2022-09-27T07:54:07;98476.60;;;11.70
68952;BMP180;56000;51.146;17.112;2022-09-27T07:56:39;98477.80;;;11.70
68952;BMP180;56000;51.146;17.112;2022-09-27T07:59:14;98481.20;;;11.70
68952;BMP180;56000;51.146;17.112;2022-09-27T08:01:48;98485.40;;;11.72
68952;BMP180;56000;51.146;17.112;2022-09-27T08:04:21;98486.60;;;11.80
68952;BMP180;56000;51.146;17.112;2022-09-27T08:06:54;98481.80;;;11.90
68952;BMP180;56000;51.146;17.112;2022-09-27T08:09:27;98478.80;;;11.90
68952;BMP180;56000;51.146;17.112;2022-09-27T08:12:01;98473.60;;;12.00
68952;BMP180;56000;51.146;17.112;2022-09-27T08:14:34;98477.20;;;12.10
68952;BMP180;56000;51.146;17.112;2022-09-27T08:17:15;98474.60;;;12.10
68952;BMP180;56000;51.146;17.112;2022-09-27T08:20:21;98468.80;;;12.20
68952;BMP180;56000;51.146;17.112;2022-09-27T08:23:05;98464.00;;;12.20
68952;BMP180;56000;51.146;17.112;2022-09-27T08:25:40;98458.20;;;12.30
68952;BMP180;56000;51.146;17.112;2022-09-27T08:28:37;98459.20;;;12.40
68952;BMP180;56000;51.146;17.112;2022-09-27T08:31:21;98463.20;;;12.40
68952;BMP180;56000;51.146;17.112;2022-09-27T08:33:58;98459.40;;;12.40
68952;BMP180;56000;51.146;17.112;2022-09-27T08:36:32;98463.80;;;12.40
68952;BMP180;56000;51.146;17.112;2022-09-27T08:39:07;98466.60;;;12.40
68952;BMP180;56000;51.146;17.112;2022-09-27T08:41:51;98473.40;;;12.40
68952;BMP180;56000;51.146;17.112;2022-09-27T08:44:35;98473.40;;;12.40
68952;BMP180;56000;51.146;17.112;2022-09-27T08:47:20;98479.20;;;12.38
68952;BMP180;56000;51.146;17.112;2022-09-27T08:50:00;98481.20;;;12.30
68952;BMP180;56000;51.146;17.112;2022-09-27T08:52:37;98485.00;;;12.30
68952;BMP180;56000;51.146;17.112;2022-09-27T08:55:23;98485.60;;;12.30
68952;BMP180;56000;51.146;17.112;2022-09-27T08:57:58;98480.20;;;12.30
68952;BMP180;56000;51.146;17.112;2022-09-27T09:00:32;98474.40;;;12.30
68952;BMP180;56000;51.146;17.112;2022-09-27T09:03:07;98471.60;;;12.30
68952;BMP180;56000;51.146;17.112;2022-09-27T09:05:41;98474.40;;;12.40
68952;BMP180;56000;51.146;17.112;2022-09-27T09:08:30;98477.80;;;12.40
68952;BMP180;56000;51.146;17.112;2022-09-27T09:11:19;98481.60;;;12.40
68952;BMP180;56000;51.146;17.112;2022-09-27T09:14:29;98488.20;;;12.50
68952;BMP180;56000;51.146;17.112;2022-09-27T09:17:18;98486.00;;;12.60
68952;BMP180;56000;51.146;17.112;2022-09-27T09:20:29;98477.00;;;12.80
68952;BMP180;56000;51.146;17.112;2022-09-27T09:23:24;98478.60;;;12.84
68952;BMP180;56000;51.146;17.112;2022-09-27T09:26:04;98473.80;;;12.90
68952;BMP180;56000;51.146;17.112;2022-09-27T09:28:58;98471.60;;;13.00
68952;BMP180;56000;51.146;17.112;2022-09-27T09:31:41;98465.20;;;13.10
68952;BMP180;56000;51.146;17.112;2022-09-27T09:34:21;98461.00;;;13.20
68952;BMP180;56000;51.146;17.112;2022-09-27T09:37:01;98452.00;;;13.20
68952;BMP180;56000;51.146;17.112;2022-09-27T09:39:40;98451.60;;;13.30
68952;BMP180;56000;51.146;17.112;2022-09-27T09:42:18;98446.60;;;13.48
68952;BMP180;56000;51.146;17.112;2022-09-27T09:45:00;98444.20;;;13.62
68952;BMP180;56000;51.146;17.112;2022-09-27T09:47:40;98445.20;;;13.82
68952;BMP180;56000;51.146;17.112;2022-09-27T09:50:21;98445.20;;;13.98
68952;BMP180;56000;51.146;17.112;2022-09-27T09:53:02;98442.60;;;14.16
68952;BMP180;56000;51.146;17.112;2022-09-27T09:55:39;98441.20;;;14.30
68952;BMP180;56000;51.146;17.112;2022-09-27T09:58:25;98444.00;;;14.40
68952;BMP180;56000;51.146;17.112;2022-09-27T10:01:19;98437.80;;;14.50
68952;BMP180;56000;51.146;17.112;2022-09-27T10:03:54;98440.40;;;14.60
68952;BMP180;56000;51.146;17.112;2022-09-27T10:06:29;98436.40;;;14.60
68952;BMP180;56000;51.146;17.112;2022-09-27T10:09:02;98432.80;;;14.60
68952;BMP180;56000;51.146;17.112;2022-09-27T10:11:46;98429.60;;;14.66
68952;BMP180;56000;51.146;17.112;2022-09-27T10:14:24;98422.40;;;14.60
68952;BMP180;56000;51.146;17.112;2022-09-27T10:17:05;98420.80;;;14.60
68952;BMP180;56000;51.146;17.112;2022-09-27T10:19:41;98424.00;;;14.60
68952;BMP180;56000;51.146;17.112;2022-09-27T10:22:21;98417.40;;;14.50
68952;BMP180;56000;51.146;17.112;2022-09-27T10:25:00;98422.80;;;14.58
68952;BMP180;56000;51.146;17.112;2022-09-27T10:27:55;98417.00;;;14.60
68952;BMP180;56000;51.146;17.112;2022-09-27T10:30:33;98420.20;;;14.70
68952;BMP180;56000;51.146;17.112;2022-09-27T10:33:18;98413.80;;;14.80
68952;BMP180;56000;51.146;17.112;2022-09-27T10:35:56;98415.40;;;14.80
68952;BMP180;56000;51.146;17.112;2022-09-27T10:38:34;98410.60;;;14.80
68952;BMP180;56000;51.146;17.112;2022-09-27T10:41:32;98406.00;;;14.80
68952;BMP180;56000;51.146;17.112;2022-09-27T10:44:26;98414.20;;;14.70
68952;BMP180;56000;51.146;17.112;2022-09-27T10:47:15;98406.40;;;14.64
68952;BMP180;56000;51.146;17.112;2022-09-27T10:50:20;98412.20;;;14.60
68952;BMP180;56000;51.146;17.112;2022-09-27T10:53:27;98420.00;;;14.52
68952;BMP180;56000;51.146;17.112;2022-09-27T10:56:04;98424.40;;;14.40
68952;BMP180;56000;51.146;17.112;2022-09-27T10:58:38;98429.00;;;14.30
68952;BMP180;56000;51.146;17.112;2022-09-27T11:01:14;98426.00;;;14.20
68952;BMP180;56000;51.146;17.112;2022-09-27T11:04:19;98424.60;;;14.10
68952;BMP180;56000;51.146;17.112;2022-09-27T11:06:52;98426.60;;;14.10
68952;BMP180;56000;51.146;17.112;2022-09-27T11:09:50;98424.60;;;14.00
68952;BMP180;56000;51.146;17.112;2022-09-27T11:12:24;98428.20;;;14.00
68952;BMP180;56000;51.146;17.112;2022-09-27T11:15:03;98428.80;;;13.90
68952;BMP180;56000;51.146;17.112;2022-09-27T11:17:46;98428.00;;;13.90
68952;BMP180;56000;51.146;17.112;2022-09-27T11:20:30;98429.20;;;13.80
68952;BMP180;56000;51.146;17.112;2022-09-27T11:23:26;98429.40;;;13.76
68952;BMP180;56000;51.146;17.112;2022-09-27T11:26:20;98426.40;;;13.70
68952;BMP180;56000;51.146;17.112;2022-09-27T11:29:09;98421.40;;;13.70
68952;BMP180;56000;51.146;17.112;2022-09-27T11:32:18;98417.60;;;13.80
68952;BMP180;56000;51.146;17.112;2022-09-27T11:35:32;98416.20;;;13.80
68952;BMP180;56000;51.146;17.112;2022-09-27T11:38:19;98409.20;;;13.90
68952;BMP180;56000;51.146;17.112;2022-09-27T11:41:32;98404.00;;;13.90
68952;BMP180;56000;51.146;17.112;2022-09-27T11:44:45;98401.80;;;14.00
68952;BMP180;56000;51.146;17.112;2022-09-27T11:47:48;98394.20;;;14.24
68952;BMP180;56000;51.146;17.112;2022-09-27T11:51:05;98391.80;;;14.50
68952;BMP180;56000;51.146;17.112;2022-09-27T11:53:57;98388.20;;;14.80
68952;BMP180;56000;51.146;17.112;2022-09-27T11:56:45;98385.40;;;15.16
68952;BMP180;56000;51.146;17.112;2022-09-27T11:59:44;98379.20;;;15.50
68952;BMP180;56000;51.146;17.112;2022-09-27T12:02:48;98374.20;;;15.70
68952;BMP180;56000;51.146;17.112;2022-09-27T12:05:33;98375.80;;;15.90
68952;BMP180;56000;51.146;17.112;2022-09-27T12:08:24;98382.60;;;16.10
68952;BMP180;56000;51.146;17.112;2022-09-27T12:11:04;98381.00;;;16.12
68952;BMP180;56000;51.146;17.112;2022-09-27T12:13:40;98376.40;;;16.16
68952;BMP180;56000;51.146;17.112;2022-09-27T12:16:16;98375.60;;;16.30
68952;BMP180;56000;51.146;17.112;2022-09-27T12:18:53;98374.00;;;16.40
68952;BMP180;56000;51.146;17.112;2022-09-27T12:21:54;98372.60;;;16.40
68952;BMP180;56000;51.146;17.112;2022-09-27T12:24:29;98375.40;;;16.40
68952;BMP180;56000;51.146;17.112;2022-09-27T12:27:20;98377.40;;;16.30
68952;BMP180;56000;51.146;17.112;2022-09-27T12:29:58;98374.20;;;16.10
68952;BMP180;56000;51.146;17.112;2022-09-27T12:32:36;98373.40;;;15.90
68952;BMP180;56000;51.146;17.112;2022-09-27T12:35:20;98370.40;;;15.80
68952;BMP180;56000;51.146;17.112;2022-09-27T12:37:58;98371.00;;;15.70
68952;BMP180;56000;51.146;17.112;2022-09-27T12:40:35;98372.20;;;15.50
68952;BMP180;56000;51.146;17.112;2022-09-27T12:43:17;98376.00;;;15.40
68952;BMP180;56000;51.146;17.112;2022-09-27T12:46:35;98377.20;;;15.26
68952;BMP180;56000;51.146;17.112;2022-09-27T12:49:16;98380.80;;;15.10
68952;BMP180;56000;51.146;17.112;2022-09-27T12:51:57;98369.80;;;15.00
68952;BMP180;56000;51.146;17.112;2022-09-27T12:55:16;98372.00;;;14.90
68952;BMP180;56000;51.146;17.112;2022-09-27T12:58:21;98374.00;;;14.80
68952;BMP180;56000;51.146;17.112;2022-09-27T13:01:05;98372.20;;;14.80
68952;BMP180;56000;51.146;17.112;2022-09-27T13:04:17;98370.20;;;14.80
68952;BMP180;56000;51.146;17.112;2022-09-27T13:07:22;98370.40;;;14.74
68952;BMP180;56000;51.146;17.112;2022-09-27T13:10:26;98371.80;;;14.70
68952;BMP180;56000;51.146;17.112;2022-09-27T13:13:04;98367.20;;;14.70
68952;BMP180;56000;51.146;17.112;2022-09-27T13:15:37;98365.00;;;14.70
68952;BMP180;56000;51.146;17.112;2022-09-27T13:18:48;98355.80;;;14.66
68952;BMP180;56000;51.146;17.112;2022-09-27T13:21:55;98361.00;;;14.60
68952;BMP180;56000;51.146;17.112;2022-09-27T13:24:51;98358.40;;;14.60
68952;BMP180;56000;51.146;17.112;2022-09-27T13:27:43;98357.40;;;14.52
68952;BMP180;56000;51.146;17.112;2022-09-27T13:30:49;98359.40;;;14.50
68952;BMP180;56000;51.146;17.112;2022-09-27T13:33:42;98351.80;;;14.50
68952;BMP180;56000;51.146;17.112;2022-09-27T13:36:30;98354.20;;;14.58
68952;BMP180;56000;51.146;17.112;2022-09-27T13:39:21;98349.20;;;14.60
68952;BMP180;56000;51.146;17.112;2022-09-27T13:42:31;98347.00;;;14.60
68952;BMP180;56000;51.146;17.112;2022-09-27T13:45:21;98350.00;;;14.60
68952;BMP180;56000;51.146;17.112;2022-09-27T13:48:01;98344.80;;;14.60
68952;BMP180;56000;51.146;17.112;2022-09-27T13:50:45;98343.60;;;14.60
68952;BMP180;56000;51.146;17.112;2022-09-27T13:53:29;98342.40;;;14.70
68952;BMP180;56000;51.146;17.112;2022-09-27T13:56:05;98344.20;;;14.80
68952;BMP180;56000;51.146;17.112;2022-09-27T13:58:50;98336.40;;;14.90
68952;BMP180;56000;51.146;17.112;2022-09-27T14:01:52;98329.00;;;15.00
68952;BMP180;56000;51.146;17.112;2022-09-27T14:04:36;98331.60;;;15.10
68952;BMP180;56000;51.146;17.112;2022-09-27T14:07:19;98330.40;;;15.30
68952;BMP180;56000;51.146;17.112;2022-09-27T14:09:56;98327.60;;;15.40
68952;BMP180;56000;51.146;17.112;2022-09-27T14:12:36;98324.40;;;15.58
68952;BMP180;56000;51.146;17.112;2022-09-27T14:15:19;98327.00;;;15.70
68952;BMP180;56000;51.146;17.112;2022-09-27T14:17:53;98328.80;;;15.84
68952;BMP180;56000;51.146;17.112;2022-09-27T14:20:39;98334.00;;;16.00
68952;BMP180;56000;51.146;17.112;2022-09-27T14:23:46;98343.00;;;16.00
68952;BMP180;56000;51.146;17.112;2022-09-27T14:26:26;98340.60;;;16.00
68952;BMP180;56000;51.146;17.112;2022-09-27T14:28:59;98343.80;;;16.00
68952;BMP180;56000;51.146;17.112;2022-09-27T14:31:36;98344.60;;;15.88
68952;BMP180;56000;51.146;17.112;2022-09-27T14:34:18;98336.60;;;15.80
68952;BMP180;56000;51.146;17.112;2022-09-27T14:36:52;98338.00;;;15.80
68952;BMP180;56000;51.146;17.112;2022-09-27T14:40:03;98334.40;;;15.80
68952;BMP180;56000;51.146;17.112;2022-09-27T14:42:38;98330.40;;;15.80
68952;BMP180;56000;51.146;17.112;2022-09-27T14:45:21;98333.20;;;15.70
68952;BMP180;56000;51.146;17.112;2022-09-27T14:47:54;98335.20;;;15.70
68952;BMP180;56000;51.146;17.112;2022-09-27T14:50:30;98336.60;;;15.60
68952;BMP180;56000;51.146;17.112;2022-09-27T14:55:50;98342.60;;;15.30
68952;BMP180;56000;51.146;17.112;2022-09-27T14:58:24;98340.20;;;15.20
68952;BMP180;56000;51.146;17.112;2022-09-27T15:01:19;98339.20;;;15.10
68952;BMP180;56000;51.146;17.112;2022-09-27T15:03:52;98350.20;;;15.00
68952;BMP180;56000;51.146;17.112;2022-09-27T15:06:25;98349.40;;;14.90
68952;BMP180;56000;51.146;17.112;2022-09-27T15:08:58;98345.60;;;14.90
68952;BMP180;56000;51.146;17.112;2022-09-27T15:11:31;98349.60;;;14.80
68952;BMP180;56000;51.146;17.112;2022-09-27T15:14:05;98352.00;;;14.72
68952;BMP180;56000;51.146;17.112;2022-09-27T15:16:38;98356.60;;;14.70
68952;BMP180;56000;51.146;17.112;2022-09-27T15:19:21;98354.60;;;14.60
68952;BMP180;56000;51.146;17.112;2022-09-27T15:21:55;98354.20;;;14.50
68952;BMP180;56000;51.146;17.112;2022-09-27T15:24:45;98349.80;;;14.40
68952;BMP180;56000;51.146;17.112;2022-09-27T15:27:19;98351.40;;;14.32
68952;BMP180;56000;51.146;17.112;2022-09-27T15:29:55;98353.20;;;14.30
68952;BMP180;56000;51.146;17.112;2022-09-27T15:32:30;98352.60;;;14.30